Geiranger — 9V8147 — position and weather

sailwx.info

Track history (hours):
 
Tides and Currents Weather Stations Pressure Air Temp Water Temp Dewpoint Dewpoint Depression Visibility Wind Speed Wind Dir Waves Ship Positions

Geiranger

Last reported at 2017-Sep-26 10:16 UTC. Time now 2017-Oct-22 13:34 UTC.
Position N 27°06' W 014°38'.
Warning: this ship's position is 26 days out of date.

Length 201 m; draft 7.2 m.

Type: Cargo ship. MMSI: 564351000.

Date/timePositionNaut miles runAvg speedWind from/ knotsBaromVisibWave heightAir tempDewpointWater temp
2017-Sep-26 10:16N 27°06' W 014°38'414.7
2017-Sep-26 10:00N 27°09' W 014°35'1114.7
2017-Sep-26 09:14N 27°17' W 014°26'314.8
2017-Sep-26 09:00N 27°20' W 014°24'714.7
2017-Sep-26 08:30N 27°25' W 014°18'715.0
2017-Sep-26 08:00N 27°30' W 014°12'815.2
2017-Sep-26 07:30N 27°36' W 014°06'1014.8
2017-Sep-26 06:50N 27°43' W 013°59'515.0
2017-Sep-26 06:30N 27°47' W 013°55'815.1
2017-Sep-26 06:00N 27°52' W 013°48'1015.0
2017-Sep-26 05:20N 27°59' W 013°40'814.9
2017-Sep-26 04:46N 28°06' W 013°35'414.7
2017-Sep-26 04:30N 28°09' W 013°33'714.5
2017-Sep-26 04:00N 28°16' W 013°29'814.2
2017-Sep-26 03:24N 28°23' W 013°24'614.4
2017-Sep-26 02:58N 28°28' W 013°20'714.5
2017-Sep-26 02:30N 28°34' W 013°15'714.3
2017-Sep-26 02:00N 28°40' W 013°11'714.0
2017-Sep-26 01:30N 28°46' W 013°07'714.1
2017-Sep-26 01:00N 28°52' W 013°03'714.6
2017-Sep-26 00:30N 28°58' W 012°59'2714.8
2017-Sep-25 22:41N 29°20' W 012°42'314.7
2017-Sep-25 22:29N 29°23' W 012°40'714.9
2017-Sep-25 22:00N 29°29' W 012°36'714.6
2017-Sep-25 21:30N 29°35' W 012°31'1914.9
2017-Sep-25 20:12N 29°52' W 012°19'5414.9
2017-Sep-25 16:32N 30°38' W 011°46'114.7
2017-Sep-25 16:30N 30°38' W 011°45'714.9
2017-Sep-25 16:01N 30°45' W 011°41'1114.9
2017-Sep-25 15:18N 30°53' W 011°34'514.8
2017-Sep-25 15:00N 30°57' W 011°31'714.7
2017-Sep-25 14:30N 31°03' W 011°27'2315.0
2017-Sep-25 12:58N 31°23' W 011°12'714.2
2017-Sep-25 12:30N 31°29' W 011°08'714.3
2017-Sep-25 12:00N 31°35' W 011°04'3014.6
2017-Sep-25 09:58N 31°60' W 010°45'3114.3
2017-Sep-25 07:49N 32°26' W 010°26'514.5
2017-Sep-25 07:27N 32°30' W 010°22'1614.6
2017-Sep-25 06:22N 32°44' W 010°12'3214.5
2017-Sep-25 04:08N 33°08' W 009°48'214.5
2017-Sep-25 04:01N 33°10' W 009°46'814.4
2017-Sep-25 03:29N 33°16' W 009°40'4914.9
2017-Sep-25 00:11N 33°50' W 008°58'314.8
2017-Sep-25 00:01N 33°51' W 008°55'814.8
2017-Sep-24 23:29N 33°57' W 008°48'1614.9
2017-Sep-24 22:23N 34°08' W 008°34'815.0
2017-Sep-24 21:52N 34°13' W 008°27'3214.9
2017-Sep-24 19:43N 34°35' W 007°59'614.8
2017-Sep-24 19:17N 34°40' W 007°53'415.0
2017-Sep-24 19:00N 34°42' W 007°49'814.9
2017-Sep-24 18:28N 34°48' W 007°42'2614.6
2017-Sep-24 16:42N 35°06' W 007°19'314.4
2017-Sep-24 16:30N 35°08' W 007°17'1214.5
2017-Sep-24 15:42N 35°16' W 007°07'314.4
2017-Sep-24 15:30N 35°18' W 007°04'1814.4
2017-Sep-24 14:15N 35°30' W 006°48'614.7
2017-Sep-24 13:50N 35°34' W 006°42'715.3
2017-Sep-24 13:23N 35°39' W 006°37'715.2
2017-Sep-24 12:57N 35°44' W 006°31'714.9
2017-Sep-24 12:27N 35°49' W 006°25'4114.0
2017-Sep-24 09:32N 35°57' W 005°35'012.7
2017-Sep-24 09:30N 35°58' W 005°35'612.3
2017-Sep-24 09:00N 35°60' W 005°28'612.4
2017-Sep-24 08:30N 36°04' W 005°22'4 1.3
2017-Sep-24 05:39N 36°08' W 005°22'0 0.0
2017-Sep-24 04:27N 36°08' W 005°22'0 0.1
2017-Sep-24 03:51N 36°08' W 005°22'0 0.1
2017-Sep-24 03:27N 36°08' W 005°22'0 0.1
2017-Sep-24 03:00N 36°08' W 005°22'0 0.1
2017-Sep-24 02:30N 36°08' W 005°22'0 0.2
2017-Sep-24 02:00N 36°08' W 005°22'0 0.4
2017-Sep-24 01:30N 36°08' W 005°22'0 0.0
2017-Sep-24 01:00N 36°08' W 005°22'0 0.1
2017-Sep-24 00:30N 36°08' W 005°22'0 0.3
2017-Sep-23 23:57N 36°08' W 005°22'0 0.0
2017-Sep-23 20:12N 36°08' W 005°22'0 0.3
2017-Sep-23 20:00N 36°08' W 005°22'  
2017-Sep-21 02:29N 36°47' E 013°15'713.6
2017-Sep-21 02:00N 36°45' E 013°23'713.5
2017-Sep-21 01:30N 36°43' E 013°31'913.5
2017-Sep-21 00:51N 36°41' E 013°42'513.2
2017-Sep-21 00:30N 36°40' E 013°47'713.2
2017-Sep-21 00:00N 36°38' E 013°55'612.9
2017-Sep-20 23:31N 36°36' E 014°03'613.0
2017-Sep-20 23:01N 36°35' E 014°11'612.9
2017-Sep-20 22:30N 36°33' E 014°18'712.9
2017-Sep-20 22:00N 36°31' E 014°26'613.0
2017-Sep-20 21:30N 36°29' E 014°34'712.9
2017-Sep-20 21:00N 36°28' E 014°42'2112.6
2017-Sep-20 19:19N 36°32' E 015°07'6514.1
2017-Sep-20 14:45N 37°19' E 016°03'1414.1
2017-Sep-20 13:45N 37°30' E 016°14'713.7
2017-Sep-20 13:14N 37°35' E 016°20'40311.1
2017-Sep-19 01:06N 44°04' E 014°03'113.4
2017-Sep-19 01:00N 44°05' E 014°02'713.4
2017-Sep-19 00:28N 44°11' E 013°57'613.4
2017-Sep-19 00:00N 44°16' E 013°52'713.3
2017-Sep-18 23:30N 44°22' E 013°47'713.4
2017-Sep-18 23:00N 44°28' E 013°42'713.4
2017-Sep-18 22:30N 44°33' E 013°37'713.4
2017-Sep-18 22:00N 44°39' E 013°32'713.3
2017-Sep-18 21:30N 44°44' E 013°26'713.2
2017-Sep-18 21:00N 44°50' E 013°21'713.2
2017-Sep-18 20:30N 44°55' E 013°16'713.1
2017-Sep-18 20:00N 45°01' E 013°11'713.0
2017-Sep-18 19:30N 45°06' E 013°06'612.9
2017-Sep-18 19:00N 45°12' E 013°03'613.0
2017-Sep-18 18:30N 45°19' E 013°01'612.7
2017-Sep-18 18:00N 45°25' E 013°04'612.7
2017-Sep-18 17:30N 45°30' E 013°09'612.6
2017-Sep-18 17:00N 45°33' E 013°17'612.6
2017-Sep-18 16:30N 45°35' E 013°25'612.7
2017-Sep-18 16:00N 45°38' E 013°33'611.3
2017-Sep-18 15:30N 45°43' E 013°37'4 8.7
2017-Sep-18 15:00N 45°47' E 013°33'0 0.4
2017-Sep-18 14:29N 45°47' E 013°33'0 0.0
2017-Sep-18 13:59N 45°47' E 013°33'0 0.0
2017-Sep-18 13:29N 45°47' E 013°33'0 0.0
2017-Sep-18 12:56N 45°47' E 013°33'0 0.0
2017-Sep-18 12:29N 45°47' E 013°33'0 0.0
2017-Sep-18 11:59N 45°47' E 013°33'0 0.0
2017-Sep-18 11:29N 45°47' E 013°33'0 0.0
2017-Sep-18 10:53N 45°47' E 013°33'0 0.0
2017-Sep-18 10:23N 45°47' E 013°33'0 0.0
2017-Sep-18 09:59N 45°47' E 013°33'0 0.0
2017-Sep-18 09:26N 45°47' E 013°33'0 0.0
2017-Sep-18 08:56N 45°47' E 013°33'0 0.0
2017-Sep-18 08:26N 45°47' E 013°33'0 0.0
2017-Sep-18 07:59N 45°47' E 013°33'0 0.0
2017-Sep-18 07:26N 45°47' E 013°33'0 0.0
2017-Sep-18 06:47N 45°47' E 013°33'0 0.0
2017-Sep-18 06:11N 45°47' E 013°33'0 0.0
2017-Sep-18 05:55N 45°47' E 013°33'0 0.0
2017-Sep-18 05:28N 45°47' E 013°33'0 0.0
2017-Sep-18 04:52N 45°47' E 013°33'0 0.1
2017-Sep-18 04:25N 45°47' E 013°33'0 0.1
2017-Sep-18 03:58N 45°47' E 013°33'0 0.0
2017-Sep-18 03:28N 45°47' E 013°33'0 0.0
2017-Sep-18 02:55N 45°47' E 013°33'0 0.0
2017-Sep-18 02:28N 45°47' E 013°33'0 0.0
2017-Sep-18 01:58N 45°47' E 013°33'0 0.0
2017-Sep-18 01:28N 45°47' E 013°33'0 0.0
2017-Sep-18 00:58N 45°47' E 013°33'0 0.0
2017-Sep-18 00:28N 45°47' E 013°33'0 0.0
2017-Sep-17 23:58N 45°47' E 013°33'0 0.0
2017-Sep-17 23:25N 45°47' E 013°33'0 0.0
2017-Sep-17 22:55N 45°47' E 013°33'0 0.0
2017-Sep-17 22:28N 45°47' E 013°33'0 0.0
2017-Sep-17 21:58N 45°47' E 013°33'0 0.0
2017-Sep-17 21:25N 45°47' E 013°33'0 0.0
2017-Sep-17 20:55N 45°47' E 013°33'0 0.0
2017-Sep-17 20:28N 45°47' E 013°33'0 0.0
2017-Sep-17 19:58N 45°47' E 013°33'0 0.0
2017-Sep-17 19:28N 45°47' E 013°33'0 0.0
2017-Sep-17 18:55N 45°47' E 013°33'0 0.0
2017-Sep-17 18:28N 45°47' E 013°33'0 0.0
2017-Sep-17 17:58N 45°47' E 013°33'0 0.0
2017-Sep-17 17:28N 45°47' E 013°33'0 0.0
2017-Sep-17 16:58N 45°47' E 013°33'0 0.0
2017-Sep-17 16:28N 45°47' E 013°33'0 0.0
2017-Sep-17 15:58N 45°47' E 013°33'0 0.0
2017-Sep-17 15:25N 45°47' E 013°33'0 0.0
2017-Sep-17 14:55N 45°47' E 013°33'0 0.0
2017-Sep-17 14:28N 45°47' E 013°33'0 0.0
2017-Sep-17 13:58N 45°47' E 013°33'0 0.0
2017-Sep-17 13:28N 45°47' E 013°33'0 0.0
2017-Sep-17 12:58N 45°47' E 013°33'0 0.0
2017-Sep-17 12:28N 45°47' E 013°33'0 0.0
2017-Sep-17 11:58N 45°47' E 013°33'0 0.0
2017-Sep-17 11:22N 45°47' E 013°33'0 0.0
2017-Sep-17 10:58N 45°47' E 013°33'0 0.0
2017-Sep-17 10:28N 45°47' E 013°33'0 0.0
2017-Sep-17 09:55N 45°47' E 013°33'0 0.0
2017-Sep-17 09:28N 45°47' E 013°33'0 0.0
2017-Sep-17 08:52N 45°47' E 013°33'0 0.0
2017-Sep-17 08:28N 45°47' E 013°33'0 0.0
2017-Sep-17 07:55N 45°47' E 013°33'0 0.0
2017-Sep-17 07:19N 45°47' E 013°33'0 0.0
2017-Sep-17 06:55N 45°47' E 013°33'0 0.0
2017-Sep-17 06:28N 45°47' E 013°33'0 0.0
2017-Sep-17 05:55N 45°47' E 013°33'0 0.0
2017-Sep-17 05:25N 45°47' E 013°33'0 0.0
2017-Sep-17 04:52N 45°47' E 013°33'0 0.0
2017-Sep-17 04:22N 45°47' E 013°33'0 0.0
2017-Sep-17 03:52N 45°47' E 013°33'0 0.0
2017-Sep-17 03:28N 45°47' E 013°33'0 0.0
2017-Sep-17 02:58N 45°47' E 013°33'0 0.0
2017-Sep-17 02:28N 45°47' E 013°33'0 0.0
2017-Sep-17 01:58N 45°47' E 013°33'0 0.0
2017-Sep-17 01:19N 45°47' E 013°33'0 0.0
2017-Sep-17 00:55N 45°47' E 013°33'0 0.0
2017-Sep-17 00:28N 45°47' E 013°33'0 0.0
2017-Sep-16 23:58N 45°47' E 013°33'0 0.0
2017-Sep-16 23:28N 45°47' E 013°33'0 0.0
2017-Sep-16 22:58N 45°47' E 013°33'0 0.0
2017-Sep-16 22:19N 45°47' E 013°33'0 0.0
2017-Sep-16 21:58N 45°47' E 013°33'0 0.0
2017-Sep-16 21:28N 45°47' E 013°33'0 0.0
2017-Sep-16 20:58N 45°47' E 013°33'0 0.0
2017-Sep-16 20:28N 45°47' E 013°33'0 0.0
2017-Sep-16 19:58N 45°47' E 013°33'0 0.0
2017-Sep-16 19:25N 45°47' E 013°33'0 0.0
2017-Sep-16 18:58N 45°47' E 013°33'0 0.0
2017-Sep-16 18:22N 45°47' E 013°33'0 0.0
2017-Sep-16 17:58N 45°47' E 013°33'0 0.0
2017-Sep-16 17:28N 45°47' E 013°33'0 0.0
2017-Sep-16 17:01N 45°47' E 013°33'0 0.0
2017-Sep-16 16:31N 45°47' E 013°33'0 0.0
2017-Sep-16 15:55N 45°47' E 013°33'0 0.0
2017-Sep-16 15:21N 45°47' E 013°33'0 0.0
2017-Sep-16 15:00N 45°47' E 013°33'0 0.0
2017-Sep-16 14:30N 45°47' E 013°33'0 0.0
2017-Sep-16 14:00N 45°47' E 013°33'0 0.0
2017-Sep-16 13:30N 45°47' E 013°33'0 0.0
2017-Sep-16 13:00N 45°47' E 013°33'0 0.0
2017-Sep-16 12:24N 45°47' E 013°33'0 0.0
2017-Sep-16 11:57N 45°47' E 013°33'0 0.0
2017-Sep-16 11:30N 45°47' E 013°33'0 0.0
2017-Sep-16 11:00N 45°47' E 013°33'0 0.0
2017-Sep-16 10:30N 45°47' E 013°33'  
Track history (hours):
 
Tides and Currents Weather Stations Pressure Air Temp Water Temp Dewpoint Dewpoint Depression Visibility Wind Speed Wind Dir Waves Ship Positions

Geiranger

Last reported at 2017-Sep-26 10:16 UTC. Time now 2017-Oct-22 13:34 UTC.
Position N 27°06' W 014°38'.
Warning: this ship's position is 26 days out of date.

Length 201 m; draft 7.2 m.

Type: Cargo ship. MMSI: 564351000.

Date/timePositionNaut miles runAvg speedWind from/ knotsBaromVisibWave heightAir tempDewpointWater temp
2017-Sep-26 10:16N 27°06' W 014°38'414.7
2017-Sep-26 10:00N 27°09' W 014°35'1114.7
2017-Sep-26 09:14N 27°17' W 014°26'314.8
2017-Sep-26 09:00N 27°20' W 014°24'714.7
2017-Sep-26 08:30N 27°25' W 014°18'715.0
2017-Sep-26 08:00N 27°30' W 014°12'815.2
2017-Sep-26 07:30N 27°36' W 014°06'1014.8
2017-Sep-26 06:50N 27°43' W 013°59'515.0
2017-Sep-26 06:30N 27°47' W 013°55'815.1
2017-Sep-26 06:00N 27°52' W 013°48'1015.0
2017-Sep-26 05:20N 27°59' W 013°40'814.9
2017-Sep-26 04:46N 28°06' W 013°35'414.7
2017-Sep-26 04:30N 28°09' W 013°33'714.5
2017-Sep-26 04:00N 28°16' W 013°29'814.2
2017-Sep-26 03:24N 28°23' W 013°24'614.4
2017-Sep-26 02:58N 28°28' W 013°20'714.5
2017-Sep-26 02:30N 28°34' W 013°15'714.3
2017-Sep-26 02:00N 28°40' W 013°11'714.0
2017-Sep-26 01:30N 28°46' W 013°07'714.1
2017-Sep-26 01:00N 28°52' W 013°03'714.6
2017-Sep-26 00:30N 28°58' W 012°59'2714.8
2017-Sep-25 22:41N 29°20' W 012°42'314.7
2017-Sep-25 22:29N 29°23' W 012°40'714.9
2017-Sep-25 22:00N 29°29' W 012°36'714.6
2017-Sep-25 21:30N 29°35' W 012°31'1914.9
2017-Sep-25 20:12N 29°52' W 012°19'5414.9
2017-Sep-25 16:32N 30°38' W 011°46'114.7
2017-Sep-25 16:30N 30°38' W 011°45'714.9
2017-Sep-25 16:01N 30°45' W 011°41'1114.9
2017-Sep-25 15:18N 30°53' W 011°34'514.8
2017-Sep-25 15:00N 30°57' W 011°31'714.7
2017-Sep-25 14:30N 31°03' W 011°27'2315.0
2017-Sep-25 12:58N 31°23' W 011°12'714.2
2017-Sep-25 12:30N 31°29' W 011°08'714.3
2017-Sep-25 12:00N 31°35' W 011°04'3014.6
2017-Sep-25 09:58N 31°60' W 010°45'3114.3
2017-Sep-25 07:49N 32°26' W 010°26'514.5
2017-Sep-25 07:27N 32°30' W 010°22'1614.6
2017-Sep-25 06:22N 32°44' W 010°12'3214.5
2017-Sep-25 04:08N 33°08' W 009°48'214.5
2017-Sep-25 04:01N 33°10' W 009°46'814.4
2017-Sep-25 03:29N 33°16' W 009°40'4914.9
2017-Sep-25 00:11N 33°50' W 008°58'314.8
2017-Sep-25 00:01N 33°51' W 008°55'814.8
2017-Sep-24 23:29N 33°57' W 008°48'1614.9
2017-Sep-24 22:23N 34°08' W 008°34'815.0
2017-Sep-24 21:52N 34°13' W 008°27'3214.9
2017-Sep-24 19:43N 34°35' W 007°59'614.8
2017-Sep-24 19:17N 34°40' W 007°53'415.0
2017-Sep-24 19:00N 34°42' W 007°49'814.9
2017-Sep-24 18:28N 34°48' W 007°42'2614.6
2017-Sep-24 16:42N 35°06' W 007°19'314.4
2017-Sep-24 16:30N 35°08' W 007°17'1214.5
2017-Sep-24 15:42N 35°16' W 007°07'314.4
2017-Sep-24 15:30N 35°18' W 007°04'1814.4
2017-Sep-24 14:15N 35°30' W 006°48'614.7
2017-Sep-24 13:50N 35°34' W 006°42'715.3
2017-Sep-24 13:23N 35°39' W 006°37'715.2
2017-Sep-24 12:57N 35°44' W 006°31'714.9
2017-Sep-24 12:27N 35°49' W 006°25'4114.0
2017-Sep-24 09:32N 35°57' W 005°35'012.7
2017-Sep-24 09:30N 35°58' W 005°35'612.3
2017-Sep-24 09:00N 35°60' W 005°28'612.4
2017-Sep-24 08:30N 36°04' W 005°22'4 1.3
2017-Sep-24 05:39N 36°08' W 005°22'0 0.0
2017-Sep-24 04:27N 36°08' W 005°22'0 0.1
2017-Sep-24 03:51N 36°08' W 005°22'0 0.1
2017-Sep-24 03:27N 36°08' W 005°22'0 0.1
2017-Sep-24 03:00N 36°08' W 005°22'0 0.1
2017-Sep-24 02:30N 36°08' W 005°22'0 0.2
2017-Sep-24 02:00N 36°08' W 005°22'0 0.4
2017-Sep-24 01:30N 36°08' W 005°22'0 0.0
2017-Sep-24 01:00N 36°08' W 005°22'0 0.1
2017-Sep-24 00:30N 36°08' W 005°22'0 0.3
2017-Sep-23 23:57N 36°08' W 005°22'0 0.0
2017-Sep-23 20:12N 36°08' W 005°22'0 0.3
2017-Sep-23 20:00N 36°08' W 005°22'  
2017-Sep-21 02:29N 36°47' E 013°15'713.6
2017-Sep-21 02:00N 36°45' E 013°23'713.5
2017-Sep-21 01:30N 36°43' E 013°31'913.5
2017-Sep-21 00:51N 36°41' E 013°42'513.2
2017-Sep-21 00:30N 36°40' E 013°47'713.2
2017-Sep-21 00:00N 36°38' E 013°55'612.9
2017-Sep-20 23:31N 36°36' E 014°03'613.0
2017-Sep-20 23:01N 36°35' E 014°11'612.9
2017-Sep-20 22:30N 36°33' E 014°18'712.9
2017-Sep-20 22:00N 36°31' E 014°26'613.0
2017-Sep-20 21:30N 36°29' E 014°34'712.9
2017-Sep-20 21:00N 36°28' E 014°42'2112.6
2017-Sep-20 19:19N 36°32' E 015°07'6514.1
2017-Sep-20 14:45N 37°19' E 016°03'1414.1
2017-Sep-20 13:45N 37°30' E 016°14'713.7
2017-Sep-20 13:14N 37°35' E 016°20'40311.1
2017-Sep-19 01:06N 44°04' E 014°03'113.4
2017-Sep-19 01:00N 44°05' E 014°02'713.4
2017-Sep-19 00:28N 44°11' E 013°57'613.4
2017-Sep-19 00:00N 44°16' E 013°52'713.3
2017-Sep-18 23:30N 44°22' E 013°47'713.4
2017-Sep-18 23:00N 44°28' E 013°42'713.4
2017-Sep-18 22:30N 44°33' E 013°37'713.4
2017-Sep-18 22:00N 44°39' E 013°32'713.3
2017-Sep-18 21:30N 44°44' E 013°26'713.2
2017-Sep-18 21:00N 44°50' E 013°21'713.2
2017-Sep-18 20:30N 44°55' E 013°16'713.1
2017-Sep-18 20:00N 45°01' E 013°11'713.0
2017-Sep-18 19:30N 45°06' E 013°06'612.9
2017-Sep-18 19:00N 45°12' E 013°03'613.0
2017-Sep-18 18:30N 45°19' E 013°01'612.7
2017-Sep-18 18:00N 45°25' E 013°04'612.7
2017-Sep-18 17:30N 45°30' E 013°09'612.6
2017-Sep-18 17:00N 45°33' E 013°17'612.6
2017-Sep-18 16:30N 45°35' E 013°25'612.7
2017-Sep-18 16:00N 45°38' E 013°33'611.3
2017-Sep-18 15:30N 45°43' E 013°37'4 8.7
2017-Sep-18 15:00N 45°47' E 013°33'0 0.4
2017-Sep-18 14:29N 45°47' E 013°33'0 0.0
2017-Sep-18 13:59N 45°47' E 013°33'0 0.0
2017-Sep-18 13:29N 45°47' E 013°33'0 0.0
2017-Sep-18 12:56N 45°47' E 013°33'0 0.0
2017-Sep-18 12:29N 45°47' E 013°33'0 0.0
2017-Sep-18 11:59N 45°47' E 013°33'0 0.0
2017-Sep-18 11:29N 45°47' E 013°33'0 0.0
2017-Sep-18 10:53N 45°47' E 013°33'0 0.0
2017-Sep-18 10:23N 45°47' E 013°33'0 0.0
2017-Sep-18 09:59N 45°47' E 013°33'0 0.0
2017-Sep-18 09:26N 45°47' E 013°33'0 0.0
2017-Sep-18 08:56N 45°47' E 013°33'0 0.0
2017-Sep-18 08:26N 45°47' E 013°33'0 0.0
2017-Sep-18 07:59N 45°47' E 013°33'0 0.0
2017-Sep-18 07:26N 45°47' E 013°33'0 0.0
2017-Sep-18 06:47N 45°47' E 013°33'0 0.0
2017-Sep-18 06:11N 45°47' E 013°33'0 0.0
2017-Sep-18 05:55N 45°47' E 013°33'0 0.0
2017-Sep-18 05:28N 45°47' E 013°33'0 0.0
2017-Sep-18 04:52N 45°47' E 013°33'0 0.1
2017-Sep-18 04:25N 45°47' E 013°33'0 0.1
2017-Sep-18 03:58N 45°47' E 013°33'0 0.0
2017-Sep-18 03:28N 45°47' E 013°33'0 0.0
2017-Sep-18 02:55N 45°47' E 013°33'0 0.0
2017-Sep-18 02:28N 45°47' E 013°33'0 0.0
2017-Sep-18 01:58N 45°47' E 013°33'0 0.0
2017-Sep-18 01:28N 45°47' E 013°33'0 0.0
2017-Sep-18 00:58N 45°47' E 013°33'0 0.0
2017-Sep-18 00:28N 45°47' E 013°33'0 0.0
2017-Sep-17 23:58N 45°47' E 013°33'0 0.0
2017-Sep-17 23:25N 45°47' E 013°33'0 0.0
2017-Sep-17 22:55N 45°47' E 013°33'0 0.0
2017-Sep-17 22:28N 45°47' E 013°33'0 0.0
2017-Sep-17 21:58N 45°47' E 013°33'0 0.0
2017-Sep-17 21:25N 45°47' E 013°33'0 0.0
2017-Sep-17 20:55N 45°47' E 013°33'0 0.0
2017-Sep-17 20:28N 45°47' E 013°33'0 0.0
2017-Sep-17 19:58N 45°47' E 013°33'0 0.0
2017-Sep-17 19:28N 45°47' E 013°33'0 0.0
2017-Sep-17 18:55N 45°47' E 013°33'0 0.0
2017-Sep-17 18:28N 45°47' E 013°33'0 0.0
2017-Sep-17 17:58N 45°47' E 013°33'0 0.0
2017-Sep-17 17:28N 45°47' E 013°33'0 0.0
2017-Sep-17 16:58N 45°47' E 013°33'0 0.0
2017-Sep-17 16:28N 45°47' E 013°33'0 0.0
2017-Sep-17 15:58N 45°47' E 013°33'0 0.0
2017-Sep-17 15:25N 45°47' E 013°33'0 0.0
2017-Sep-17 14:55N 45°47' E 013°33'0 0.0
2017-Sep-17 14:28N 45°47' E 013°33'0 0.0
2017-Sep-17 13:58N 45°47' E 013°33'0 0.0
2017-Sep-17 13:28N 45°47' E 013°33'0 0.0
2017-Sep-17 12:58N 45°47' E 013°33'0 0.0
2017-Sep-17 12:28N 45°47' E 013°33'0 0.0
2017-Sep-17 11:58N 45°47' E 013°33'0 0.0
2017-Sep-17 11:22N 45°47' E 013°33'0 0.0
2017-Sep-17 10:58N 45°47' E 013°33'0 0.0
2017-Sep-17 10:28N 45°47' E 013°33'0 0.0
2017-Sep-17 09:55N 45°47' E 013°33'0 0.0
2017-Sep-17 09:28N 45°47' E 013°33'0 0.0
2017-Sep-17 08:52N 45°47' E 013°33'0 0.0
2017-Sep-17 08:28N 45°47' E 013°33'0 0.0
2017-Sep-17 07:55N 45°47' E 013°33'0 0.0
2017-Sep-17 07:19N 45°47' E 013°33'0 0.0
2017-Sep-17 06:55N 45°47' E 013°33'0 0.0
2017-Sep-17 06:28N 45°47' E 013°33'0 0.0
2017-Sep-17 05:55N 45°47' E 013°33'0 0.0
2017-Sep-17 05:25N 45°47' E 013°33'0 0.0
2017-Sep-17 04:52N 45°47' E 013°33'0 0.0
2017-Sep-17 04:22N 45°47' E 013°33'0 0.0
2017-Sep-17 03:52N 45°47' E 013°33'0 0.0
2017-Sep-17 03:28N 45°47' E 013°33'0 0.0
2017-Sep-17 02:58N 45°47' E 013°33'0 0.0
2017-Sep-17 02:28N 45°47' E 013°33'0 0.0
2017-Sep-17 01:58N 45°47' E 013°33'0 0.0
2017-Sep-17 01:19N 45°47' E 013°33'0 0.0
2017-Sep-17 00:55N 45°47' E 013°33'0 0.0
2017-Sep-17 00:28N 45°47' E 013°33'0 0.0
2017-Sep-16 23:58N 45°47' E 013°33'0 0.0
2017-Sep-16 23:28N 45°47' E 013°33'0 0.0
2017-Sep-16 22:58N 45°47' E 013°33'0 0.0
2017-Sep-16 22:19N 45°47' E 013°33'0 0.0
2017-Sep-16 21:58N 45°47' E 013°33'0 0.0
2017-Sep-16 21:28N 45°47' E 013°33'0 0.0
2017-Sep-16 20:58N 45°47' E 013°33'0 0.0
2017-Sep-16 20:28N 45°47' E 013°33'0 0.0
2017-Sep-16 19:58N 45°47' E 013°33'0 0.0
2017-Sep-16 19:25N 45°47' E 013°33'0 0.0
2017-Sep-16 18:58N 45°47' E 013°33'0 0.0
2017-Sep-16 18:22N 45°47' E 013°33'0 0.0
2017-Sep-16 17:58N 45°47' E 013°33'0 0.0
2017-Sep-16 17:28N 45°47' E 013°33'0 0.0
2017-Sep-16 17:01N 45°47' E 013°33'0 0.0
2017-Sep-16 16:31N 45°47' E 013°33'0 0.0
2017-Sep-16 15:55N 45°47' E 013°33'0 0.0
2017-Sep-16 15:21N 45°47' E 013°33'0 0.0
2017-Sep-16 15:00N 45°47' E 013°33'0 0.0
2017-Sep-16 14:30N 45°47' E 013°33'0 0.0
2017-Sep-16 14:00N 45°47' E 013°33'0 0.0
2017-Sep-16 13:30N 45°47' E 013°33'0 0.0
2017-Sep-16 13:00N 45°47' E 013°33'0 0.0
2017-Sep-16 12:24N 45°47' E 013°33'0 0.0
2017-Sep-16 11:57N 45°47' E 013°33'0 0.0
2017-Sep-16 11:30N 45°47' E 013°33'0 0.0
2017-Sep-16 11:00N 45°47' E 013°33'0 0.0
2017-Sep-16 10:30N 45°47' E 013°33'  

Dump ship's entire track history